sensor_id;sensor_type;location;lat;lon;timestamp;P1;durP1;ratioP1;P2;durP2;ratioP2
703;SDS011;335;48.694;9.120;2023-08-06T00:00:22;11.23;;;4.63;;
703;SDS011;335;48.694;9.120;2023-08-06T00:02:47;4.20;;;3.93;;
703;SDS011;335;48.694;9.120;2023-08-06T00:05:13;4.10;;;3.80;;
703;SDS011;335;48.694;9.120;2023-08-06T00:07:42;6.30;;;5.80;;
703;SDS011;335;48.694;9.120;2023-08-06T00:10:08;6.23;;;5.57;;
703;SDS011;335;48.694;9.120;2023-08-06T00:12:33;4.77;;;4.47;;
703;SDS011;335;48.694;9.120;2023-08-06T00:14:59;4.90;;;4.60;;
703;SDS011;335;48.694;9.120;2023-08-06T00:17:24;5.30;;;5.00;;
703;SDS011;335;48.694;9.120;2023-08-06T00:19:49;5.20;;;4.90;;
703;SDS011;335;48.694;9.120;2023-08-06T00:22:15;5.53;;;5.23;;
703;SDS011;335;48.694;9.120;2023-08-06T00:24:40;6.90;;;4.77;;
703;SDS011;335;48.694;9.120;2023-08-06T00:27:05;5.20;;;4.90;;
703;SDS011;335;48.694;9.120;2023-08-06T00:29:31;4.43;;;4.10;;
703;SDS011;335;48.694;9.120;2023-08-06T00:31:56;4.10;;;3.90;;
703;SDS011;335;48.694;9.120;2023-08-06T00:34:21;3.17;;;3.07;;
703;SDS011;335;48.694;9.120;2023-08-06T00:36:47;3.70;;;3.50;;
703;SDS011;335;48.694;9.120;2023-08-06T00:39:12;4.00;;;3.80;;
703;SDS011;335;48.694;9.120;2023-08-06T00:41:38;3.63;;;3.43;;
703;SDS011;335;48.694;9.120;2023-08-06T00:44:04;3.20;;;3.00;;
703;SDS011;335;48.694;9.120;2023-08-06T00:46:29;4.07;;;3.77;;
703;SDS011;335;48.694;9.120;2023-08-06T00:48:55;4.07;;;3.80;;
703;SDS011;335;48.694;9.120;2023-08-06T00:51:21;5.13;;;3.70;;
703;SDS011;335;48.694;9.120;2023-08-06T00:53:47;3.07;;;2.97;;
703;SDS011;335;48.694;9.120;2023-08-06T00:56:14;3.63;;;3.43;;
703;SDS011;335;48.694;9.120;2023-08-06T00:58:39;3.63;;;3.40;;
703;SDS011;335;48.694;9.120;2023-08-06T01:01:05;3.47;;;3.27;;
703;SDS011;335;48.694;9.120;2023-08-06T01:03:30;4.23;;;3.93;;
703;SDS011;335;48.694;9.120;2023-08-06T01:05:55;3.93;;;3.67;;
703;SDS011;335;48.694;9.120;2023-08-06T01:08:33;4.20;;;3.90;;
703;SDS011;335;48.694;9.120;2023-08-06T01:14:02;4.70;;;4.40;;
703;SDS011;335;48.694;9.120;2023-08-06T01:16:31;4.17;;;3.37;;
703;SDS011;335;48.694;9.120;2023-08-06T01:18:57;4.30;;;4.07;;
703;SDS011;335;48.694;9.120;2023-08-06T01:21:23;4.50;;;4.20;;
703;SDS011;335;48.694;9.120;2023-08-06T01:23:48;3.63;;;3.50;;
703;SDS011;335;48.694;9.120;2023-08-06T01:26:15;3.77;;;3.60;;
703;SDS011;335;48.694;9.120;2023-08-06T01:31:26;4.60;;;4.33;;
703;SDS011;335;48.694;9.120;2023-08-06T01:33:52;3.77;;;3.57;;
703;SDS011;335;48.694;9.120;2023-08-06T01:36:19;4.03;;;3.73;;
703;SDS011;335;48.694;9.120;2023-08-06T01:38:45;4.27;;;3.83;;
703;SDS011;335;48.694;9.120;2023-08-06T01:41:10;3.80;;;3.53;;
703;SDS011;335;48.694;9.120;2023-08-06T01:43:35;4.10;;;3.90;;
703;SDS011;335;48.694;9.120;2023-08-06T01:46:01;3.40;;;3.20;;
703;SDS011;335;48.694;9.120;2023-08-06T01:48:26;4.10;;;3.83;;
703;SDS011;335;48.694;9.120;2023-08-06T01:50:51;3.67;;;3.47;;
703;SDS011;335;48.694;9.120;2023-08-06T01:53:16;3.87;;;3.67;;
703;SDS011;335;48.694;9.120;2023-08-06T01:55:42;3.90;;;3.70;;
703;SDS011;335;48.694;9.120;2023-08-06T01:58:07;5.70;;;3.47;;
703;SDS011;335;48.694;9.120;2023-08-06T02:00:32;5.17;;;4.57;;
703;SDS011;335;48.694;9.120;2023-08-06T02:02:58;4.13;;;3.73;;
703;SDS011;335;48.694;9.120;2023-08-06T02:05:23;4.10;;;3.90;;
703;SDS011;335;48.694;9.120;2023-08-06T02:07:48;3.87;;;3.67;;
703;SDS011;335;48.694;9.120;2023-08-06T02:10:14;4.30;;;3.90;;
703;SDS011;335;48.694;9.120;2023-08-06T02:12:39;4.70;;;4.40;;
703;SDS011;335;48.694;9.120;2023-08-06T02:15:04;3.70;;;3.43;;
703;SDS011;335;48.694;9.120;2023-08-06T02:17:30;4.60;;;4.17;;
703;SDS011;335;48.694;9.120;2023-08-06T02:19:56;3.80;;;3.60;;
703;SDS011;335;48.694;9.120;2023-08-06T02:22:21;3.80;;;3.50;;
703;SDS011;335;48.694;9.120;2023-08-06T02:24:48;3.77;;;3.47;;
703;SDS011;335;48.694;9.120;2023-08-06T02:27:14;5.03;;;4.70;;
703;SDS011;335;48.694;9.120;2023-08-06T02:29:39;3.93;;;3.63;;
703;SDS011;335;48.694;9.120;2023-08-06T02:32:05;4.03;;;3.80;;
703;SDS011;335;48.694;9.120;2023-08-06T02:34:31;3.80;;;3.50;;
703;SDS011;335;48.694;9.120;2023-08-06T02:36:56;4.00;;;3.30;;
703;SDS011;335;48.694;9.120;2023-08-06T02:39:22;3.53;;;3.20;;
703;SDS011;335;48.694;9.120;2023-08-06T02:41:47;3.63;;;3.33;;
703;SDS011;335;48.694;9.120;2023-08-06T02:44:13;3.47;;;3.10;;
703;SDS011;335;48.694;9.120;2023-08-06T02:46:38;3.37;;;3.00;;
703;SDS011;335;48.694;9.120;2023-08-06T02:49:03;3.40;;;3.20;;
703;SDS011;335;48.694;9.120;2023-08-06T02:51:29;3.80;;;3.60;;
703;SDS011;335;48.694;9.120;2023-08-06T02:53:54;3.33;;;3.13;;
703;SDS011;335;48.694;9.120;2023-08-06T02:56:19;3.33;;;3.13;;
703;SDS011;335;48.694;9.120;2023-08-06T02:58:45;2.90;;;2.80;;
703;SDS011;335;48.694;9.120;2023-08-06T03:01:10;4.73;;;3.30;;
703;SDS011;335;48.694;9.120;2023-08-06T03:03:35;2.73;;;2.63;;
703;SDS011;335;48.694;9.120;2023-08-06T03:06:01;3.20;;;3.00;;
703;SDS011;335;48.694;9.120;2023-08-06T03:08:26;3.17;;;2.97;;
703;SDS011;335;48.694;9.120;2023-08-06T03:10:52;2.70;;;2.60;;
703;SDS011;335;48.694;9.120;2023-08-06T03:13:17;2.47;;;2.27;;
703;SDS011;335;48.694;9.120;2023-08-06T03:15:43;2.93;;;2.73;;
703;SDS011;335;48.694;9.120;2023-08-06T03:18:16;3.57;;;3.27;;
703;SDS011;335;48.694;9.120;2023-08-06T03:20:42;2.50;;;2.40;;
703;SDS011;335;48.694;9.120;2023-08-06T03:23:07;3.00;;;2.60;;
703;SDS011;335;48.694;9.120;2023-08-06T03:25:34;3.73;;;2.77;;
703;SDS011;335;48.694;9.120;2023-08-06T03:28:00;3.13;;;2.97;;
703;SDS011;335;48.694;9.120;2023-08-06T03:30:26;2.60;;;2.40;;
703;SDS011;335;48.694;9.120;2023-08-06T03:32:51;3.40;;;3.20;;
703;SDS011;335;48.694;9.120;2023-08-06T03:35:16;2.37;;;2.27;;
703;SDS011;335;48.694;9.120;2023-08-06T03:37:41;3.00;;;2.80;;
703;SDS011;335;48.694;9.120;2023-08-06T03:40:07;2.80;;;2.50;;
703;SDS011;335;48.694;9.120;2023-08-06T03:42:33;2.70;;;2.30;;
703;SDS011;335;48.694;9.120;2023-08-06T03:44:58;3.07;;;2.53;;
703;SDS011;335;48.694;9.120;2023-08-06T03:47:23;2.40;;;2.20;;
703;SDS011;335;48.694;9.120;2023-08-06T03:49:49;2.83;;;2.57;;
703;SDS011;335;48.694;9.120;2023-08-06T03:52:14;2.30;;;2.20;;
703;SDS011;335;48.694;9.120;2023-08-06T03:54:40;1.97;;;1.87;;
703;SDS011;335;48.694;9.120;2023-08-06T03:57:05;2.30;;;2.10;;
703;SDS011;335;48.694;9.120;2023-08-06T03:59:31;2.40;;;2.20;;
703;SDS011;335;48.694;9.120;2023-08-06T04:01:56;2.60;;;1.93;;
703;SDS011;335;48.694;9.120;2023-08-06T04:04:21;2.10;;;2.00;;
703;SDS011;335;48.694;9.120;2023-08-06T04:06:47;2.30;;;2.07;;
703;SDS011;335;48.694;9.120;2023-08-06T04:09:12;1.70;;;1.60;;
703;SDS011;335;48.694;9.120;2023-08-06T04:11:38;1.83;;;1.73;;
703;SDS011;335;48.694;9.120;2023-08-06T04:14:03;2.63;;;1.90;;
703;SDS011;335;48.694;9.120;2023-08-06T04:16:29;2.50;;;2.40;;
703;SDS011;335;48.694;9.120;2023-08-06T04:18:54;2.13;;;1.93;;
703;SDS011;335;48.694;9.120;2023-08-06T04:21:20;5.30;;;2.07;;
703;SDS011;335;48.694;9.120;2023-08-06T04:23:45;2.60;;;2.40;;
703;SDS011;335;48.694;9.120;2023-08-06T04:26:11;4.83;;;2.13;;
703;SDS011;335;48.694;9.120;2023-08-06T04:28:36;2.10;;;2.00;;
703;SDS011;335;48.694;9.120;2023-08-06T04:31:01;2.30;;;2.03;;
703;SDS011;335;48.694;9.120;2023-08-06T04:33:27;2.60;;;1.90;;
703;SDS011;335;48.694;9.120;2023-08-06T04:35:55;2.20;;;2.10;;
703;SDS011;335;48.694;9.120;2023-08-06T04:38:22;3.17;;;2.40;;
703;SDS011;335;48.694;9.120;2023-08-06T04:40:48;3.10;;;2.10;;
703;SDS011;335;48.694;9.120;2023-08-06T04:43:14;1.90;;;1.80;;
703;SDS011;335;48.694;9.120;2023-08-06T04:45:45;1.93;;;1.83;;
703;SDS011;335;48.694;9.120;2023-08-06T04:48:11;1.93;;;1.83;;
703;SDS011;335;48.694;9.120;2023-08-06T04:50:37;2.20;;;2.00;;
703;SDS011;335;48.694;9.120;2023-08-06T04:53:02;1.83;;;1.40;;
703;SDS011;335;48.694;9.120;2023-08-06T04:55:28;1.77;;;1.63;;
703;SDS011;335;48.694;9.120;2023-08-06T04:57:53;2.03;;;1.63;;
703;SDS011;335;48.694;9.120;2023-08-06T05:00:19;2.07;;;1.97;;
703;SDS011;335;48.694;9.120;2023-08-06T05:02:44;2.33;;;2.03;;
703;SDS011;335;48.694;9.120;2023-08-06T05:05:10;1.93;;;1.30;;
703;SDS011;335;48.694;9.120;2023-08-06T05:07:35;3.60;;;1.40;;
703;SDS011;335;48.694;9.120;2023-08-06T05:10:00;1.30;;;1.20;;
703;SDS011;335;48.694;9.120;2023-08-06T05:12:27;1.47;;;1.37;;
703;SDS011;335;48.694;9.120;2023-08-06T05:14:53;1.17;;;1.10;;
703;SDS011;335;48.694;9.120;2023-08-06T05:17:18;2.43;;;1.17;;
703;SDS011;335;48.694;9.120;2023-08-06T05:19:44;1.77;;;1.10;;
703;SDS011;335;48.694;9.120;2023-08-06T05:22:09;2.00;;;1.00;;
703;SDS011;335;48.694;9.120;2023-08-06T05:24:35;1.97;;;1.20;;
703;SDS011;335;48.694;9.120;2023-08-06T05:27:00;2.40;;;1.10;;
703;SDS011;335;48.694;9.120;2023-08-06T05:29:25;1.73;;;1.20;;
703;SDS011;335;48.694;9.120;2023-08-06T05:31:52;1.60;;;1.00;;
703;SDS011;335;48.694;9.120;2023-08-06T05:34:17;1.23;;;1.03;;
703;SDS011;335;48.694;9.120;2023-08-06T05:36:42;3.00;;;0.87;;
703;SDS011;335;48.694;9.120;2023-08-06T05:39:08;1.30;;;1.20;;
703;SDS011;335;48.694;9.120;2023-08-06T05:41:33;1.60;;;1.30;;
703;SDS011;335;48.694;9.120;2023-08-06T05:43:58;0.73;;;0.70;;
703;SDS011;335;48.694;9.120;2023-08-06T05:46:24;1.77;;;0.63;;
703;SDS011;335;48.694;9.120;2023-08-06T05:48:49;0.90;;;0.90;;
703;SDS011;335;48.694;9.120;2023-08-06T05:51:16;0.97;;;0.97;;
703;SDS011;335;48.694;9.120;2023-08-06T05:53:41;1.77;;;0.80;;
703;SDS011;335;48.694;9.120;2023-08-06T05:56:07;0.70;;;0.60;;
703;SDS011;335;48.694;9.120;2023-08-06T05:58:32;0.73;;;0.73;;
703;SDS011;335;48.694;9.120;2023-08-06T06:00:58;1.43;;;0.77;;
703;SDS011;335;48.694;9.120;2023-08-06T06:03:24;1.70;;;1.00;;
703;SDS011;335;48.694;9.120;2023-08-06T06:05:49;2.97;;;1.10;;
703;SDS011;335;48.694;9.120;2023-08-06T06:08:14;4.37;;;0.80;;
703;SDS011;335;48.694;9.120;2023-08-06T06:10:40;1.30;;;0.43;;
703;SDS011;335;48.694;9.120;2023-08-06T06:13:06;2.47;;;0.83;;
703;SDS011;335;48.694;9.120;2023-08-06T06:15:31;1.80;;;1.13;;
703;SDS011;335;48.694;9.120;2023-08-06T06:17:56;1.40;;;0.77;;
703;SDS011;335;48.694;9.120;2023-08-06T06:20:22;0.50;;;0.50;;
703;SDS011;335;48.694;9.120;2023-08-06T06:22:47;1.10;;;1.00;;
703;SDS011;335;48.694;9.120;2023-08-06T06:25:13;2.23;;;0.83;;
703;SDS011;335;48.694;9.120;2023-08-06T06:27:38;0.80;;;0.43;;
703;SDS011;335;48.694;9.120;2023-08-06T06:30:03;1.00;;;0.83;;
703;SDS011;335;48.694;9.120;2023-08-06T06:32:29;2.00;;;0.93;;
703;SDS011;335;48.694;9.120;2023-08-06T06:34:55;4.20;;;0.80;;
703;SDS011;335;48.694;9.120;2023-08-06T06:37:20;1.60;;;1.00;;
703;SDS011;335;48.694;9.120;2023-08-06T06:39:45;0.60;;;0.60;;
703;SDS011;335;48.694;9.120;2023-08-06T06:42:11;2.30;;;0.83;;
703;SDS011;335;48.694;9.120;2023-08-06T06:44:36;2.33;;;0.83;;
703;SDS011;335;48.694;9.120;2023-08-06T06:47:04;0.73;;;0.60;;
703;SDS011;335;48.694;9.120;2023-08-06T06:49:29;1.03;;;0.90;;
703;SDS011;335;48.694;9.120;2023-08-06T06:51:55;2.60;;;0.90;;
703;SDS011;335;48.694;9.120;2023-08-06T06:54:20;1.67;;;0.70;;
703;SDS011;335;48.694;9.120;2023-08-06T06:56:45;0.70;;;0.70;;
703;SDS011;335;48.694;9.120;2023-08-06T06:59:11;0.83;;;0.83;;
703;SDS011;335;48.694;9.120;2023-08-06T07:01:39;0.50;;;0.50;;
703;SDS011;335;48.694;9.120;2023-08-06T07:04:04;1.17;;;0.60;;
703;SDS011;335;48.694;9.120;2023-08-06T07:06:30;1.33;;;0.50;;
703;SDS011;335;48.694;9.120;2023-08-06T07:08:56;0.70;;;0.60;;
703;SDS011;335;48.694;9.120;2023-08-06T07:11:21;2.30;;;0.40;;
703;SDS011;335;48.694;9.120;2023-08-06T07:13:47;2.37;;;0.80;;
703;SDS011;335;48.694;9.120;2023-08-06T07:16:12;1.17;;;0.53;;
703;SDS011;335;48.694;9.120;2023-08-06T07:18:37;1.17;;;0.50;;
703;SDS011;335;48.694;9.120;2023-08-06T07:21:03;0.50;;;0.40;;
703;SDS011;335;48.694;9.120;2023-08-06T07:23:28;0.40;;;0.40;;
703;SDS011;335;48.694;9.120;2023-08-06T07:25:54;0.70;;;0.43;;
703;SDS011;335;48.694;9.120;2023-08-06T07:28:19;0.73;;;0.47;;
703;SDS011;335;48.694;9.120;2023-08-06T07:30:45;0.40;;;0.30;;
703;SDS011;335;48.694;9.120;2023-08-06T07:33:10;0.60;;;0.30;;
703;SDS011;335;48.694;9.120;2023-08-06T07:35:36;0.40;;;0.30;;
703;SDS011;335;48.694;9.120;2023-08-06T07:38:02;0.93;;;0.40;;
703;SDS011;335;48.694;9.120;2023-08-06T07:40:27;1.00;;;0.30;;
703;SDS011;335;48.694;9.120;2023-08-06T07:42:53;0.40;;;0.20;;
703;SDS011;335;48.694;9.120;2023-08-06T07:45:18;0.57;;;0.20;;
703;SDS011;335;48.694;9.120;2023-08-06T07:47:44;0.50;;;0.30;;
703;SDS011;335;48.694;9.120;2023-08-06T07:50:09;2.00;;;0.40;;
703;SDS011;335;48.694;9.120;2023-08-06T07:52:35;0.50;;;0.23;;
703;SDS011;335;48.694;9.120;2023-08-06T07:55:00;0.70;;;0.30;;
703;SDS011;335;48.694;9.120;2023-08-06T07:57:29;0.43;;;0.20;;
703;SDS011;335;48.694;9.120;2023-08-06T07:59:55;0.40;;;0.20;;
703;SDS011;335;48.694;9.120;2023-08-06T08:02:20;0.50;;;0.17;;
703;SDS011;335;48.694;9.120;2023-08-06T08:04:46;0.50;;;0.30;;
703;SDS011;335;48.694;9.120;2023-08-06T08:07:12;0.57;;;0.20;;
703;SDS011;335;48.694;9.120;2023-08-06T08:09:38;0.70;;;0.43;;
703;SDS011;335;48.694;9.120;2023-08-06T08:12:03;0.60;;;0.20;;
703;SDS011;335;48.694;9.120;2023-08-06T08:14:28;0.40;;;0.10;;
703;SDS011;335;48.694;9.120;2023-08-06T08:16:54;0.30;;;0.10;;
703;SDS011;335;48.694;9.120;2023-08-06T08:19:19;0.40;;;0.20;;
703;SDS011;335;48.694;9.120;2023-08-06T08:21:46;0.40;;;0.20;;
703;SDS011;335;48.694;9.120;2023-08-06T08:24:11;0.60;;;0.23;;
703;SDS011;335;48.694;9.120;2023-08-06T08:26:36;0.40;;;0.20;;
703;SDS011;335;48.694;9.120;2023-08-06T08:29:02;0.50;;;0.20;;
703;SDS011;335;48.694;9.120;2023-08-06T08:31:27;0.57;;;0.20;;
703;SDS011;335;48.694;9.120;2023-08-06T08:33:53;0.40;;;0.20;;
703;SDS011;335;48.694;9.120;2023-08-06T08:36:19;0.30;;;0.20;;
703;SDS011;335;48.694;9.120;2023-08-06T08:38:44;0.70;;;0.30;;
703;SDS011;335;48.694;9.120;2023-08-06T08:41:10;0.30;;;0.10;;
703;SDS011;335;48.694;9.120;2023-08-06T08:43:36;0.30;;;0.10;;
703;SDS011;335;48.694;9.120;2023-08-06T08:46:01;0.40;;;0.20;;
703;SDS011;335;48.694;9.120;2023-08-06T08:48:27;0.40;;;0.10;;
703;SDS011;335;48.694;9.120;2023-08-06T08:50:53;0.30;;;0.20;;
703;SDS011;335;48.694;9.120;2023-08-06T08:53:18;0.30;;;0.20;;
703;SDS011;335;48.694;9.120;2023-08-06T08:55:47;0.40;;;0.20;;
703;SDS011;335;48.694;9.120;2023-08-06T08:58:13;0.87;;;0.10;;
703;SDS011;335;48.694;9.120;2023-08-06T09:00:39;0.40;;;0.30;;
703;SDS011;335;48.694;9.120;2023-08-06T09:03:06;1.27;;;0.20;;
703;SDS011;335;48.694;9.120;2023-08-06T09:05:32;0.30;;;0.10;;
703;SDS011;335;48.694;9.120;2023-08-06T09:08:04;0.30;;;0.10;;
703;SDS011;335;48.694;9.120;2023-08-06T09:10:30;0.40;;;0.20;;
703;SDS011;335;48.694;9.120;2023-08-06T09:12:56;0.40;;;0.30;;
703;SDS011;335;48.694;9.120;2023-08-06T09:15:26;0.30;;;0.20;;
703;SDS011;335;48.694;9.120;2023-08-06T09:17:52;0.40;;;0.20;;
703;SDS011;335;48.694;9.120;2023-08-06T09:20:18;0.50;;;0.20;;
703;SDS011;335;48.694;9.120;2023-08-06T09:22:43;0.30;;;0.10;;
703;SDS011;335;48.694;9.120;2023-08-06T09:25:10;0.60;;;0.20;;
703;SDS011;335;48.694;9.120;2023-08-06T09:27:36;0.30;;;0.20;;
703;SDS011;335;48.694;9.120;2023-08-06T09:30:02;0.30;;;0.10;;
703;SDS011;335;48.694;9.120;2023-08-06T09:32:44;0.30;;;0.17;;
703;SDS011;335;48.694;9.120;2023-08-06T09:35:13;0.50;;;0.20;;
703;SDS011;335;48.694;9.120;2023-08-06T09:37:40;0.60;;;0.20;;
703;SDS011;335;48.694;9.120;2023-08-06T09:40:21;1.23;;;0.20;;
703;SDS011;335;48.694;9.120;2023-08-06T09:42:49;0.50;;;0.20;;
703;SDS011;335;48.694;9.120;2023-08-06T09:45:16;1.27;;;0.20;;
703;SDS011;335;48.694;9.120;2023-08-06T09:47:42;0.60;;;0.20;;
703;SDS011;335;48.694;9.120;2023-08-06T09:50:17;0.30;;;0.20;;
703;SDS011;335;48.694;9.120;2023-08-06T09:52:43;0.30;;;0.20;;
703;SDS011;335;48.694;9.120;2023-08-06T09:55:10;0.40;;;0.20;;
703;SDS011;335;48.694;9.120;2023-08-06T09:57:36;0.30;;;0.20;;
703;SDS011;335;48.694;9.120;2023-08-06T10:00:02;0.40;;;0.20;;
703;SDS011;335;48.694;9.120;2023-08-06T10:02:28;0.30;;;0.20;;
703;SDS011;335;48.694;9.120;2023-08-06T10:04:53;0.43;;;0.37;;
703;SDS011;335;48.694;9.120;2023-08-06T10:07:20;0.50;;;0.20;;
703;SDS011;335;48.694;9.120;2023-08-06T10:09:47;0.30;;;0.20;;
703;SDS011;335;48.694;9.120;2023-08-06T10:12:13;0.33;;;0.17;;
703;SDS011;335;48.694;9.120;2023-08-06T10:14:39;0.40;;;0.20;;
703;SDS011;335;48.694;9.120;2023-08-06T10:17:06;0.30;;;0.20;;
703;SDS011;335;48.694;9.120;2023-08-06T10:19:32;0.40;;;0.20;;
703;SDS011;335;48.694;9.120;2023-08-06T10:22:10;0.30;;;0.10;;
703;SDS011;335;48.694;9.120;2023-08-06T10:24:46;0.40;;;0.20;;
703;SDS011;335;48.694;9.120;2023-08-06T10:27:19;0.30;;;0.10;;
703;SDS011;335;48.694;9.120;2023-08-06T10:29:45;0.30;;;0.20;;
703;SDS011;335;48.694;9.120;2023-08-06T10:32:11;0.40;;;0.10;;
703;SDS011;335;48.694;9.120;2023-08-06T10:34:55;0.30;;;0.20;;
703;SDS011;335;48.694;9.120;2023-08-06T10:37:35;0.40;;;0.10;;
703;SDS011;335;48.694;9.120;2023-08-06T10:40:02;0.40;;;0.20;;
703;SDS011;335;48.694;9.120;2023-08-06T10:42:29;0.40;;;0.20;;
703;SDS011;335;48.694;9.120;2023-08-06T10:47:42;0.60;;;0.20;;
703;SDS011;335;48.694;9.120;2023-08-06T10:50:10;0.93;;;0.20;;
703;SDS011;335;48.694;9.120;2023-08-06T10:52:46;1.03;;;0.20;;
703;SDS011;335;48.694;9.120;2023-08-06T10:55:22;0.40;;;0.10;;
703;SDS011;335;48.694;9.120;2023-08-06T10:57:54;0.40;;;0.10;;
703;SDS011;335;48.694;9.120;2023-08-06T11:00:23;0.40;;;0.20;;
703;SDS011;335;48.694;9.120;2023-08-06T11:02:49;0.77;;;0.67;;
703;SDS011;335;48.694;9.120;2023-08-06T11:05:15;0.30;;;0.20;;
703;SDS011;335;48.694;9.120;2023-08-06T11:07:41;0.33;;;0.20;;
703;SDS011;335;48.694;9.120;2023-08-06T11:10:08;0.40;;;0.20;;
703;SDS011;335;48.694;9.120;2023-08-06T11:12:34;0.40;;;0.23;;
703;SDS011;335;48.694;9.120;2023-08-06T11:15:00;0.30;;;0.20;;
703;SDS011;335;48.694;9.120;2023-08-06T11:17:27;0.40;;;0.30;;
703;SDS011;335;48.694;9.120;2023-08-06T11:19:58;0.60;;;0.20;;
703;SDS011;335;48.694;9.120;2023-08-06T11:22:24;0.33;;;0.20;;
703;SDS011;335;48.694;9.120;2023-08-06T11:24:50;0.60;;;0.40;;
703;SDS011;335;48.694;9.120;2023-08-06T11:27:16;1.00;;;0.20;;
703;SDS011;335;48.694;9.120;2023-08-06T11:29:42;1.07;;;0.30;;
703;SDS011;335;48.694;9.120;2023-08-06T11:35:30;0.50;;;0.40;;
703;SDS011;335;48.694;9.120;2023-08-06T11:38:01;0.40;;;0.27;;
703;SDS011;335;48.694;9.120;2023-08-06T11:40:26;0.40;;;0.40;;
703;SDS011;335;48.694;9.120;2023-08-06T11:42:52;0.40;;;0.30;;
703;SDS011;335;48.694;9.120;2023-08-06T11:45:21;0.50;;;0.50;;
703;SDS011;335;48.694;9.120;2023-08-06T11:47:51;0.40;;;0.30;;
703;SDS011;335;48.694;9.120;2023-08-06T11:50:23;0.40;;;0.33;;
703;SDS011;335;48.694;9.120;2023-08-06T11:52:49;0.77;;;0.70;;
703;SDS011;335;48.694;9.120;2023-08-06T11:55:22;0.70;;;0.63;;
703;SDS011;335;48.694;9.120;2023-08-06T11:57:48;1.53;;;0.40;;
703;SDS011;335;48.694;9.120;2023-08-06T12:00:14;0.40;;;0.37;;
703;SDS011;335;48.694;9.120;2023-08-06T12:02:40;1.33;;;0.40;;
703;SDS011;335;48.694;9.120;2023-08-06T12:05:15;0.50;;;0.47;;
703;SDS011;335;48.694;9.120;2023-08-06T12:07:42;2.33;;;0.30;;
703;SDS011;335;48.694;9.120;2023-08-06T12:10:09;0.57;;;0.40;;
703;SDS011;335;48.694;9.120;2023-08-06T12:12:35;0.80;;;0.30;;
703;SDS011;335;48.694;9.120;2023-08-06T12:15:01;1.63;;;0.40;;
703;SDS011;335;48.694;9.120;2023-08-06T12:17:26;0.63;;;0.50;;
703;SDS011;335;48.694;9.120;2023-08-06T12:19:51;0.87;;;0.30;;
703;SDS011;335;48.694;9.120;2023-08-06T12:22:17;0.60;;;0.47;;
703;SDS011;335;48.694;9.120;2023-08-06T12:24:46;1.07;;;0.30;;
703;SDS011;335;48.694;9.120;2023-08-06T12:27:12;0.30;;;0.20;;
703;SDS011;335;48.694;9.120;2023-08-06T12:29:45;1.37;;;0.60;;
703;SDS011;335;48.694;9.120;2023-08-06T12:32:12;0.47;;;0.47;;
703;SDS011;335;48.694;9.120;2023-08-06T12:34:39;0.50;;;0.40;;
703;SDS011;335;48.694;9.120;2023-08-06T12:37:05;1.37;;;0.43;;
703;SDS011;335;48.694;9.120;2023-08-06T12:39:32;0.80;;;0.50;;
703;SDS011;335;48.694;9.120;2023-08-06T12:41:59;0.40;;;0.40;;
703;SDS011;335;48.694;9.120;2023-08-06T12:44:25;0.60;;;0.40;;
703;SDS011;335;48.694;9.120;2023-08-06T12:46:51;0.80;;;0.33;;
703;SDS011;335;48.694;9.120;2023-08-06T12:49:17;0.53;;;0.30;;
703;SDS011;335;48.694;9.120;2023-08-06T12:51:43;0.40;;;0.40;;
703;SDS011;335;48.694;9.120;2023-08-06T12:54:08;0.50;;;0.50;;
703;SDS011;335;48.694;9.120;2023-08-06T12:56:34;0.50;;;0.30;;
703;SDS011;335;48.694;9.120;2023-08-06T12:59:00;0.40;;;0.30;;
703;SDS011;335;48.694;9.120;2023-08-06T13:01:25;0.50;;;0.50;;
703;SDS011;335;48.694;9.120;2023-08-06T13:03:51;0.50;;;0.50;;
703;SDS011;335;48.694;9.120;2023-08-06T13:06:16;0.60;;;0.53;;
703;SDS011;335;48.694;9.120;2023-08-06T13:08:43;0.50;;;0.50;;
703;SDS011;335;48.694;9.120;2023-08-06T13:11:08;0.40;;;0.40;;
703;SDS011;335;48.694;9.120;2023-08-06T13:13:34;0.40;;;0.40;;
703;SDS011;335;48.694;9.120;2023-08-06T13:15:59;0.53;;;0.53;;
703;SDS011;335;48.694;9.120;2023-08-06T13:18:27;0.80;;;0.70;;
703;SDS011;335;48.694;9.120;2023-08-06T13:20:54;0.60;;;0.60;;
703;SDS011;335;48.694;9.120;2023-08-06T13:23:22;0.53;;;0.50;;
703;SDS011;335;48.694;9.120;2023-08-06T13:25:48;0.47;;;0.40;;
703;SDS011;335;48.694;9.120;2023-08-06T13:28:13;0.40;;;0.30;;
703;SDS011;335;48.694;9.120;2023-08-06T13:30:39;0.80;;;0.60;;
703;SDS011;335;48.694;9.120;2023-08-06T13:33:10;2.10;;;0.40;;
703;SDS011;335;48.694;9.120;2023-08-06T13:35:36;0.50;;;0.50;;
703;SDS011;335;48.694;9.120;2023-08-06T13:38:02;0.40;;;0.27;;
703;SDS011;335;48.694;9.120;2023-08-06T13:40:32;1.37;;;0.47;;
703;SDS011;335;48.694;9.120;2023-08-06T13:42:59;0.50;;;0.50;;
703;SDS011;335;48.694;9.120;2023-08-06T13:45:25;0.90;;;0.50;;
703;SDS011;335;48.694;9.120;2023-08-06T13:47:50;0.40;;;0.30;;
703;SDS011;335;48.694;9.120;2023-08-06T13:50:17;1.90;;;0.40;;
703;SDS011;335;48.694;9.120;2023-08-06T13:52:44;0.60;;;0.33;;
703;SDS011;335;48.694;9.120;2023-08-06T13:55:09;0.47;;;0.33;;
703;SDS011;335;48.694;9.120;2023-08-06T13:57:35;1.13;;;0.37;;
703;SDS011;335;48.694;9.120;2023-08-06T14:00:00;0.50;;;0.50;;
703;SDS011;335;48.694;9.120;2023-08-06T14:02:26;0.50;;;0.50;;
703;SDS011;335;48.694;9.120;2023-08-06T14:04:52;1.33;;;0.37;;
703;SDS011;335;48.694;9.120;2023-08-06T14:07:20;1.23;;;0.70;;
703;SDS011;335;48.694;9.120;2023-08-06T14:09:46;0.57;;;0.57;;
703;SDS011;335;48.694;9.120;2023-08-06T14:12:14;0.70;;;0.63;;
703;SDS011;335;48.694;9.120;2023-08-06T14:14:43;0.40;;;0.30;;
703;SDS011;335;48.694;9.120;2023-08-06T14:17:08;0.50;;;0.50;;
703;SDS011;335;48.694;9.120;2023-08-06T14:19:34;0.40;;;0.33;;
703;SDS011;335;48.694;9.120;2023-08-06T14:21:59;0.40;;;0.30;;
703;SDS011;335;48.694;9.120;2023-08-06T14:24:24;0.60;;;0.60;;
703;SDS011;335;48.694;9.120;2023-08-06T14:26:50;0.63;;;0.40;;
703;SDS011;335;48.694;9.120;2023-08-06T14:29:19;0.77;;;0.40;;
703;SDS011;335;48.694;9.120;2023-08-06T14:31:49;0.87;;;0.60;;
703;SDS011;335;48.694;9.120;2023-08-06T14:34:15;0.40;;;0.40;;
703;SDS011;335;48.694;9.120;2023-08-06T14:36:41;0.53;;;0.53;;
703;SDS011;335;48.694;9.120;2023-08-06T14:39:08;0.60;;;0.50;;
703;SDS011;335;48.694;9.120;2023-08-06T14:41:36;0.50;;;0.43;;
703;SDS011;335;48.694;9.120;2023-08-06T14:44:02;0.50;;;0.50;;
703;SDS011;335;48.694;9.120;2023-08-06T14:46:27;0.40;;;0.30;;
703;SDS011;335;48.694;9.120;2023-08-06T14:48:52;0.43;;;0.43;;
703;SDS011;335;48.694;9.120;2023-08-06T14:51:18;0.73;;;0.40;;
703;SDS011;335;48.694;9.120;2023-08-06T14:53:46;0.50;;;0.50;;
703;SDS011;335;48.694;9.120;2023-08-06T14:56:11;0.40;;;0.40;;
703;SDS011;335;48.694;9.120;2023-08-06T14:58:37;0.50;;;0.30;;
703;SDS011;335;48.694;9.120;2023-08-06T15:01:02;0.60;;;0.60;;
703;SDS011;335;48.694;9.120;2023-08-06T15:03:28;1.23;;;0.37;;
703;SDS011;335;48.694;9.120;2023-08-06T15:05:53;0.83;;;0.53;;
703;SDS011;335;48.694;9.120;2023-08-06T15:08:18;0.50;;;0.50;;
703;SDS011;335;48.694;9.120;2023-08-06T15:10:49;0.67;;;0.60;;
703;SDS011;335;48.694;9.120;2023-08-06T15:13:15;0.60;;;0.50;;
703;SDS011;335;48.694;9.120;2023-08-06T15:15:40;0.40;;;0.40;;
703;SDS011;335;48.694;9.120;2023-08-06T15:18:07;0.50;;;0.50;;
703;SDS011;335;48.694;9.120;2023-08-06T15:20:32;0.40;;;0.40;;
703;SDS011;335;48.694;9.120;2023-08-06T15:22:58;0.50;;;0.43;;
703;SDS011;335;48.694;9.120;2023-08-06T15:25:23;1.00;;;0.70;;
703;SDS011;335;48.694;9.120;2023-08-06T15:27:49;0.50;;;0.50;;
703;SDS011;335;48.694;9.120;2023-08-06T15:30:14;0.60;;;0.37;;
703;SDS011;335;48.694;9.120;2023-08-06T15:32:40;1.13;;;0.30;;
703;SDS011;335;48.694;9.120;2023-08-06T15:35:09;0.80;;;0.80;;
703;SDS011;335;48.694;9.120;2023-08-06T15:37:34;1.40;;;0.50;;
703;SDS011;335;48.694;9.120;2023-08-06T15:40:00;0.60;;;0.57;;
703;SDS011;335;48.694;9.120;2023-08-06T15:42:25;0.60;;;0.60;;
703;SDS011;335;48.694;9.120;2023-08-06T15:44:50;0.40;;;0.40;;
703;SDS011;335;48.694;9.120;2023-08-06T15:47:16;0.67;;;0.50;;
703;SDS011;335;48.694;9.120;2023-08-06T15:49:41;0.97;;;0.50;;